createdAt,value
2023-03-04T01:41:12.565Z,5.90
2023-03-04T01:46:37.349Z,6.00
2023-03-04T01:52:10.102Z,5.90
2023-03-04T01:57:38.447Z,5.90
2023-03-04T02:03:36.543Z,6.00
2023-03-04T02:08:53.731Z,5.90
2023-03-04T02:26:50.676Z,5.90
2023-03-04T02:32:30.388Z,5.80
2023-03-04T02:38:08.270Z,5.80
2023-03-04T02:43:58.174Z,5.80
2023-03-04T02:49:17.965Z,5.90
2023-03-04T03:25:14.776Z,5.80
2023-03-04T03:30:34.084Z,5.80
2023-03-04T03:36:26.466Z,5.70
2023-03-04T03:53:56.882Z,5.80
2023-03-04T03:59:21.174Z,5.80
2023-03-04T04:04:53.439Z,5.80
2023-03-04T04:10:30.856Z,5.70
2023-03-04T04:51:32.670Z,5.80
2023-03-04T05:31:27.347Z,5.80
2023-03-04T06:01:24.058Z,5.80
2023-03-04T06:06:25.859Z,5.80
2023-03-04T06:11:27.721Z,5.70
2023-03-04T06:16:29.599Z,5.80
2023-03-04T06:21:31.484Z,5.80
2023-03-04T06:26:33.276Z,5.70
2023-03-04T06:31:35.318Z,5.70
2023-03-04T06:36:37.329Z,5.70
2023-03-04T06:41:39.542Z,5.70
2023-03-04T06:46:41.496Z,5.70
2023-03-04T06:51:43.403Z,5.70
2023-03-04T06:56:45.234Z,5.70
2023-03-04T07:01:47.101Z,5.70
2023-03-04T07:06:49.869Z,5.70
2023-03-04T07:11:51.882Z,5.70
2023-03-04T07:16:53.774Z,5.70
2023-03-04T07:21:55.671Z,5.70
2023-03-04T07:26:57.650Z,5.80
2023-03-04T07:31:59.628Z,5.80
2023-03-04T07:37:03.343Z,5.80
2023-03-04T07:42:05.191Z,5.80
2023-03-04T07:47:09.104Z,5.80
2023-03-04T07:52:11.071Z,5.80
2023-03-04T07:57:12.882Z,5.90
2023-03-04T08:02:15.612Z,5.90
2023-03-04T08:07:17.527Z,5.90
2023-03-04T08:12:19.414Z,5.90
2023-03-04T08:17:21.660Z,6.00
2023-03-04T08:22:23.570Z,6.00
2023-03-04T08:27:25.405Z,6.10
2023-03-04T08:32:27.358Z,6.10
2023-03-04T08:37:29.873Z,6.20
2023-03-04T08:42:31.687Z,6.30
2023-03-04T08:47:33.572Z,6.30
2023-03-04T08:52:35.490Z,6.40
2023-03-04T08:57:37.300Z,6.50
2023-03-04T09:02:39.129Z,6.60
2023-03-04T09:07:41.279Z,6.70
2023-03-04T09:12:43.258Z,6.70
2023-03-04T09:17:45.190Z,6.70
2023-03-04T09:22:47.035Z,6.80
2023-03-04T09:27:48.955Z,6.90
2023-03-04T09:32:50.916Z,7.00
2023-03-04T09:37:54.315Z,7.10
2023-03-04T09:43:00.741Z,7.20
2023-03-04T09:48:02.751Z,7.30
2023-03-04T09:53:13.861Z,7.40
2023-03-04T09:58:39.154Z,7.50
2023-03-04T10:03:48.504Z,7.60
2023-03-04T10:09:01.149Z,7.60
2023-03-04T10:14:23.092Z,7.50
2023-03-04T10:19:36.718Z,7.60
2023-03-04T10:24:38.692Z,7.60
2023-03-04T10:29:40.593Z,7.60
2023-03-04T10:34:42.427Z,7.50
2023-03-04T10:39:46.026Z,7.50
2023-03-04T10:45:00.232Z,7.40
2023-03-04T10:50:05.345Z,7.30
2023-03-04T10:55:18.883Z,7.20
2023-03-04T11:00:32.076Z,7.30
2023-03-04T11:05:34.253Z,7.40
2023-03-04T11:10:35.989Z,7.60
2023-03-04T11:15:57.850Z,7.60
2023-03-04T11:21:01.113Z,7.70
2023-03-04T11:26:06.773Z,7.80
2023-03-04T11:31:22.030Z,8.00
2023-03-04T11:36:44.153Z,8.20
2023-03-04T11:41:55.324Z,8.30
2023-03-04T11:47:05.075Z,8.30
2023-03-04T11:52:32.012Z,8.30
2023-03-04T11:58:08.083Z,8.20
2023-03-04T12:03:19.639Z,8.10
2023-03-04T12:08:41.222Z,7.90
2023-03-04T12:14:02.664Z,7.80
2023-03-04T12:19:17.275Z,7.80
2023-03-04T12:24:19.277Z,7.90
2023-03-04T12:29:42.130Z,8.10
2023-03-04T12:34:56.234Z,8.20
2023-03-04T12:40:20.583Z,8.40
2023-03-04T12:45:27.905Z,8.40
2023-03-04T12:50:51.773Z,8.40
2023-03-04T12:55:56.228Z,8.40
2023-03-04T13:01:16.331Z,8.40
2023-03-04T13:06:30.283Z,8.40
2023-03-04T13:11:38.830Z,8.50
2023-03-04T13:16:46.638Z,8.70
2023-03-04T13:21:48.872Z,8.80
2023-03-04T13:26:50.821Z,8.80
2023-03-04T13:32:14.053Z,8.80
2023-03-04T13:37:36.416Z,8.80
2023-03-04T13:42:43.707Z,8.70
2023-03-04T13:47:46.749Z,8.70
2023-03-04T13:52:48.866Z,8.60
2023-03-04T13:57:51.120Z,8.50
2023-03-04T14:02:53.015Z,8.50
2023-03-04T14:07:54.859Z,8.40
2023-03-04T14:12:58.217Z,8.40
2023-03-04T14:18:01.901Z,8.40
2023-03-04T14:23:21.662Z,8.30
2023-03-04T14:28:23.489Z,8.20
2023-03-04T14:33:28.545Z,8.00
2023-03-04T14:38:40.681Z,7.90
2023-03-04T14:43:55.265Z,7.80
2023-03-04T14:48:57.938Z,7.80
2023-03-04T14:54:00.112Z,7.80
2023-03-04T14:59:02.606Z,7.80
2023-03-04T15:04:12.458Z,7.90
2023-03-04T15:09:26.173Z,8.10
2023-03-04T15:14:51.966Z,8.30
2023-03-04T15:20:05.683Z,8.50
2023-03-04T15:25:12.307Z,8.60
2023-03-04T15:30:29.246Z,8.90
2023-03-04T15:35:35.873Z,8.90
2023-03-04T15:40:39.765Z,8.90
2023-03-04T15:45:42.066Z,8.90
2023-03-04T15:51:02.580Z,8.70
2023-03-04T15:56:05.639Z,8.70
2023-03-04T16:01:07.627Z,8.50
2023-03-04T16:06:11.283Z,8.40
2023-03-04T16:11:17.923Z,8.30
2023-03-04T16:16:20.667Z,8.30
2023-03-04T16:21:28.200Z,8.20
2023-03-04T16:26:30.600Z,8.20
2023-03-04T16:31:32.509Z,8.20
2023-03-04T16:36:35.675Z,8.20
2023-03-04T16:41:37.557Z,8.10
2023-03-04T16:46:39.811Z,8.00
2023-03-04T16:51:45.509Z,7.90
2023-03-04T16:56:47.385Z,7.90
2023-03-04T17:01:49.687Z,7.90
2023-03-04T17:06:51.742Z,7.80
2023-03-04T17:11:53.585Z,7.70
2023-03-04T17:16:55.504Z,7.70
2023-03-04T17:21:58.874Z,7.70
2023-03-04T17:27:00.695Z,7.60
2023-03-04T17:32:02.509Z,7.60
2023-03-04T17:37:04.445Z,7.50
2023-03-04T17:42:06.749Z,7.40
2023-03-04T17:47:08.692Z,7.30
2023-03-04T17:52:11.354Z,7.10
2023-03-04T17:57:13.800Z,7.10
2023-03-04T18:02:16.212Z,7.10
2023-03-04T18:07:18.272Z,7.00
2023-03-04T18:12:20.131Z,7.00
2023-03-04T18:17:22.033Z,7.00
2023-03-04T18:22:27.003Z,7.10
2023-03-04T18:27:42.811Z,7.10
2023-03-04T18:32:52.700Z,7.00
2023-03-04T18:38:00.694Z,7.00
2023-03-04T18:43:07.631Z,6.90
2023-03-04T18:48:13.365Z,7.00
2023-03-04T18:53:22.070Z,6.90
2023-03-04T18:58:34.112Z,6.90
2023-03-04T19:03:38.683Z,6.80
2023-03-04T19:08:45.325Z,6.80
2023-03-04T19:13:54.196Z,6.80
2023-03-04T19:19:38.557Z,6.70
2023-03-04T19:24:48.008Z,6.70
2023-03-04T19:30:35.756Z,6.60
2023-03-04T19:36:06.235Z,6.60
2023-03-04T19:41:25.515Z,6.50
2023-03-04T19:46:37.385Z,6.50
2023-03-04T19:51:53.631Z,6.40
2023-03-04T19:57:11.645Z,6.50
2023-03-04T20:02:27.795Z,6.40
2023-03-04T20:08:02.837Z,6.40
2023-03-04T20:13:30.532Z,6.30
2023-03-04T20:18:49.423Z,6.30
2023-03-04T20:24:12.186Z,6.30
2023-03-04T20:35:46.595Z,6.20
2023-03-04T20:59:29.872Z,6.20
2023-03-04T21:04:44.718Z,6.10
2023-03-04T21:10:04.062Z,6.10
2023-03-04T21:15:35.526Z,6.10
2023-03-04T21:21:27.799Z,6.00
2023-03-04T21:26:35.174Z,5.90
2023-03-04T21:32:38.112Z,5.90
2023-03-04T21:37:44.683Z,5.90
2023-03-04T21:42:55.705Z,5.90
2023-03-04T21:48:12.860Z,5.90
2023-03-04T21:53:53.378Z,5.80
2023-03-04T21:59:17.641Z,5.80
2023-03-04T22:04:44.312Z,5.80
2023-03-04T22:10:21.732Z,5.80
2023-03-04T22:15:45.923Z,5.70
2023-03-04T22:20:57.892Z,5.70
2023-03-04T22:26:08.668Z,5.70
2023-03-04T22:31:32.401Z,5.70
2023-03-04T22:36:48.108Z,5.70
2023-03-04T22:42:03.076Z,5.60
2023-03-04T22:47:12.863Z,5.50
2023-03-04T22:52:43.404Z,5.50
2023-03-04T22:57:51.418Z,5.50
2023-03-04T23:03:10.908Z,5.50
2023-03-04T23:08:37.958Z,5.50
2023-03-04T23:13:55.624Z,5.50
2023-03-04T23:19:07.605Z,5.40
2023-03-04T23:24:20.880Z,5.40
2023-03-04T23:29:25.908Z,5.30
2023-03-04T23:34:31.104Z,5.30
2023-03-04T23:39:43.128Z,5.30
2023-03-04T23:45:12.416Z,5.30
2023-03-04T23:50:32.826Z,5.30
2023-03-04T23:55:42.185Z,5.30
